Time;durP1;ratioP1;P1;durP2;ratioP2;P2;SDS_P1;SDS_P2;PMS_P1;PMS_P2;Temp;Humidity;BMP_temperature;BMP_pressure;BME280_temperature;BME280_humidity;BME280_pressure;Samples;Min_cycle;Max_cycle;Signal;HPM_P1;HPM_P2
2019/06/10 00:00:52;;;;;;;12.7;8.6;;;;;;;;;;;;;
2019/06/10 00:03:17;;;;;;;10.9;8.7;;;;;;;;;;;;;
2019/06/10 00:05:42;;;;;;;10.1;7.9;;;;;;;;;;;;;
2019/06/10 00:08:07;;;;;;;12.8;9;;;;;;;;;;;;;
2019/06/10 00:10:33;;;;;;;11.6;8.5;;;;;;;;;;;;;
2019/06/10 00:12:58;;;;;;;11;7.7;;;;;;;;;;;;;
2019/06/10 00:15:23;;;;;;;9.9;7.4;;;;;;;;;;;;;
2019/06/10 00:17:48;;;;;;;11.4;7.6;;;;;;;;;;;;;
2019/06/10 00:20:13;;;;;;;11.5;7.3;;;;;;;;;;;;;
2019/06/10 00:22:38;;;;;;;9.6;7.1;;;;;;;;;;;;;
2019/06/10 00:25:03;;;;;;;10.2;7.7;;;;;;;;;;;;;
2019/06/10 00:27:28;;;;;;;9.2;6.9;;;;;;;;;;;;;
2019/06/10 00:29:53;;;;;;;11.5;7.4;;;;;;;;;;;;;
2019/06/10 00:32:18;;;;;;;9.8;7.3;;;;;;;;;;;;;
2019/06/10 00:34:43;;;;;;;9.1;6.8;;;;;;;;;;;;;
2019/06/10 00:37:09;;;;;;;10.1;7.2;;;;;;;;;;;;;
2019/06/10 00:39:34;;;;;;;10.7;7.4;;;;;;;;;;;;;
2019/06/10 00:41:59;;;;;;;13.3;8.2;;;;;;;;;;;;;
2019/06/10 00:44:24;;;;;;;10.8;7.7;;;;;;;;;;;;;
2019/06/10 00:46:49;;;;;;;12;7.4;;;;;;;;;;;;;
2019/06/10 00:49:14;;;;;;;11.3;7.2;;;;;;;;;;;;;
2019/06/10 00:51:39;;;;;;;11.9;7.3;;;;;;;;;;;;;
2019/06/10 00:54:07;;;;;;;11.2;7.5;;;;;;;;;;;;;
2019/06/10 00:56:33;;;;;;;9.6;7.1;;;;;;;;;;;;;
2019/06/10 00:58:59;;;;;;;10.4;7.6;;;;;;;;;;;;;
2019/06/10 01:01:24;;;;;;;10.6;8;;;;;;;;;;;;;
2019/06/10 01:03:49;;;;;;;13.2;8.2;;;;;;;;;;;;;
2019/06/10 01:06:14;;;;;;;12.3;8.7;;;;;;;;;;;;;
2019/06/10 01:08:39;;;;;;;12.3;8.9;;;;;;;;;;;;;
2019/06/10 01:11:04;;;;;;;12.9;9.3;;;;;;;;;;;;;
2019/06/10 01:13:29;;;;;;;13.1;9.5;;;;;;;;;;;;;
2019/06/10 01:15:54;;;;;;;11;9;;;;;;;;;;;;;
2019/06/10 01:18:20;;;;;;;13.3;9.9;;;;;;;;;;;;;
2019/06/10 01:20:44;;;;;;;12.4;9.8;;;;;;;;;;;;;
2019/06/10 01:23:10;;;;;;;13.1;9.9;;;;;;;;;;;;;
2019/06/10 01:25:35;;;;;;;15.7;11.7;;;;;;;;;;;;;
2019/06/10 01:28:00;;;;;;;17.3;12.3;;;;;;;;;;;;;
2019/06/10 01:30:25;;;;;;;14.8;11;;;;;;;;;;;;;
2019/06/10 01:32:51;;;;;;;16.7;11.7;;;;;;;;;;;;;
2019/06/10 01:35:17;;;;;;;12.7;9.9;;;;;;;;;;;;;
2019/06/10 01:37:42;;;;;;;13.7;9.5;;;;;;;;;;;;;
2019/06/10 01:40:07;;;;;;;12;9.3;;;;;;;;;;;;;
2019/06/10 01:42:32;;;;;;;12.7;9.1;;;;;;;;;;;;;
2019/06/10 01:44:57;;;;;;;11.6;8.9;;;;;;;;;;;;;
2019/06/10 01:47:23;;;;;;;14.1;9.7;;;;;;;;;;;;;
2019/06/10 01:49:48;;;;;;;12.6;10.2;;;;;;;;;;;;;
2019/06/10 01:52:13;;;;;;;13.1;9.1;;;;;;;;;;;;;
2019/06/10 01:54:38;;;;;;;12.5;8.9;;;;;;;;;;;;;
2019/06/10 01:57:03;;;;;;;10.5;8.4;;;;;;;;;;;;;
2019/06/10 01:59:28;;;;;;;11.9;8;;;;;;;;;;;;;
2019/06/10 02:02:00;;;;;;;12.7;9.5;;;;;;;;;;;;;
2019/06/10 02:04:19;;;;;;;12;8.6;;;;;;;;;;;;;
2019/06/10 02:06:45;;;;;;;10.8;7.7;;;;;;;;;;;;;
2019/06/10 02:09:10;;;;;;;12.8;8.3;;;;;;;;;;;;;
2019/06/10 02:11:35;;;;;;;11.4;8.4;;;;;;;;;;;;;
2019/06/10 02:14:00;;;;;;;11.1;8;;;;;;;;;;;;;
2019/06/10 02:16:25;;;;;;;10.8;8.2;;;;;;;;;;;;;
2019/06/10 02:18:51;;;;;;;12.4;7.8;;;;;;;;;;;;;
2019/06/10 02:21:16;;;;;;;11.5;7.5;;;;;;;;;;;;;
2019/06/10 02:23:41;;;;;;;11.5;6.5;;;;;;;;;;;;;
2019/06/10 02:26:06;;;;;;;11;6.6;;;;;;;;;;;;;
2019/06/10 02:28:31;;;;;;;11;6.1;;;;;;;;;;;;;
2019/06/10 02:30:56;;;;;;;10.2;5.4;;;;;;;;;;;;;
2019/06/10 02:33:21;;;;;;;10.9;6.6;;;;;;;;;;;;;
2019/06/10 02:35:46;;;;;;;9.4;6.6;;;;;;;;;;;;;
2019/06/10 02:38:11;;;;;;;11.4;7.4;;;;;;;;;;;;;
2019/06/10 02:40:36;;;;;;;9.9;7;;;;;;;;;;;;;
2019/06/10 02:43:02;;;;;;;11;7.1;;;;;;;;;;;;;
2019/06/10 02:45:27;;;;;;;10.2;6.9;;;;;;;;;;;;;
2019/06/10 02:47:52;;;;;;;9.2;6.5;;;;;;;;;;;;;
2019/06/10 02:50:17;;;;;;;10.5;7.1;;;;;;;;;;;;;
2019/06/10 02:52:42;;;;;;;10.8;7.1;;;;;;;;;;;;;
2019/06/10 02:55:07;;;;;;;10.3;7.3;;;;;;;;;;;;;
2019/06/10 02:57:32;;;;;;;12.9;6.7;;;;;;;;;;;;;
2019/06/10 02:59:57;;;;;;;9.8;6.5;;;;;;;;;;;;;
2019/06/10 03:02:22;;;;;;;12.2;7.4;;;;;;;;;;;;;
2019/06/10 03:04:48;;;;;;;11.1;7.1;;;;;;;;;;;;;
2019/06/10 03:07:13;;;;;;;9.9;7;;;;;;;;;;;;;
2019/06/10 03:09:38;;;;;;;12.8;7.3;;;;;;;;;;;;;
2019/06/10 03:12:03;;;;;;;10;6.5;;;;;;;;;;;;;
2019/06/10 03:14:28;;;;;;;11;7.6;;;;;;;;;;;;;
2019/06/10 03:16:56;;;;;;;11;7.2;;;;;;;;;;;;;
2019/06/10 03:19:18;;;;;;;10.2;7.2;;;;;;;;;;;;;
2019/06/10 03:21:43;;;;;;;11.1;7.2;;;;;;;;;;;;;
2019/06/10 03:24:08;;;;;;;11.9;7.7;;;;;;;;;;;;;
2019/06/10 03:26:34;;;;;;;10.4;7.6;;;;;;;;;;;;;
2019/06/10 03:28:59;;;;;;;11.1;7.4;;;;;;;;;;;;;
2019/06/10 03:31:24;;;;;;;10.2;6.9;;;;;;;;;;;;;
2019/06/10 03:33:49;;;;;;;11;7;;;;;;;;;;;;;
2019/06/10 03:36:14;;;;;;;12.1;6.9;;;;;;;;;;;;;
2019/06/10 03:38:39;;;;;;;12.5;7.9;;;;;;;;;;;;;
2019/06/10 03:41:05;;;;;;;11.5;8.1;;;;;;;;;;;;;
2019/06/10 03:43:30;;;;;;;13.4;7.8;;;;;;;;;;;;;
2019/06/10 03:45:55;;;;;;;12.1;7.9;;;;;;;;;;;;;
2019/06/10 03:48:20;;;;;;;11.4;8.3;;;;;;;;;;;;;
2019/06/10 03:50:45;;;;;;;12;8.1;;;;;;;;;;;;;
2019/06/10 03:53:10;;;;;;;11.4;8.1;;;;;;;;;;;;;
2019/06/10 03:55:35;;;;;;;13.2;8.9;;;;;;;;;;;;;
2019/06/10 03:58:00;;;;;;;12.5;9.4;;;;;;;;;;;;;
2019/06/10 04:02:28;;;;;;;16.4;11.9;;;;;;;17.47;89.56348;1001.137;;;;
2019/06/10 04:04:53;;;;;;;16.7;11.2;;;;;;;17.7;88.44434;1001.294;;;;
2019/06/10 04:07:18;;;;;;;13.6;10.5;;;;;;;17.46;87.15234;1001.24;;;;
2019/06/10 04:09:43;;;;;;;17.6;11.9;;;;;;;17.49;88.09961;1001.137;;;;
2019/06/10 04:12:08;;;;;;;16;11.8;;;;;;;17.53;89.04004;1001.133;;;;
2019/06/10 04:14:33;;;;;;;16.9;11.8;;;;;;;17.7;88.17676;1001.166;;;;
2019/06/10 04:16:59;;;;;;;18.8;11.9;;;;;;;17.74;87.43848;1001.139;;;;
2019/06/10 04:19:27;;;;;;;17.8;11.7;;;;;;;17.77;86.55957;1001.165;;;;
2019/06/10 04:21:52;;;;;;;15.5;12.1;;;;;;;17.89;85.41016;1001.282;;;;
2019/06/10 04:24:17;;;;;;;17.8;12;;;;;;;17.98;85.64746;1001.211;;;;
2019/06/10 04:26:42;;;;;;;15.5;11.3;;;;;;;17.95;86.40918;1001.191;;;;
2019/06/10 04:29:07;;;;;;;16.1;12.1;;;;;;;18.01;86.30859;1001.271;;;;
2019/06/10 04:31:33;;;;;;;13.4;10.8;;;;;;;17.96;86.49609;1001.394;;;;
2019/06/10 04:33:58;;;;;;;16.6;11.8;;;;;;;18.21;85.77246;1001.473;;;;
2019/06/10 04:36:23;;;;;;;17.1;11.2;;;;;;;18.33;83.67773;1001.493;;;;
2019/06/10 04:38:48;;;;;;;16;11.2;;;;;;;18.3;84.47559;1001.503;;;;
2019/06/10 04:41:13;;;;;;;14.5;11;;;;;;;18.32;85.29395;1001.481;;;;
2019/06/10 04:43:38;;;;;;;14.7;10;;;;;;;18.49;83.93848;1001.556;;;;
2019/06/10 04:46:03;;;;;;;15.5;9.9;;;;;;;18.76;82.3584;1001.599;;;;
2019/06/10 04:48:28;;;;;;;12.4;9.2;;;;;;;18.88;81.40039;1001.656;;;;
2019/06/10 04:50:53;;;;;;;12.4;9.6;;;;;;;18.55;82.45801;1001.766;;;;
2019/06/10 04:53:19;;;;;;;12.6;9.6;;;;;;;18.22;84.16992;1001.98;;;;
2019/06/10 04:55:44;;;;;;;13.5;9.5;;;;;;;18.28;83.99219;1002.01;;;;
2019/06/10 04:58:09;;;;;;;15.3;10.3;;;;;;;18.03;85.54102;1001.97;;;;
2019/06/10 05:00:34;;;;;;;14.1;9.8;;;;;;;18.07;85.23535;1002.013;;;;
2019/06/10 05:03:02;;;;;;;13.6;9.8;;;;;;;17.92;84.79883;1002.033;;;;
2019/06/10 05:05:27;;;;;;;14.8;9.6;;;;;;;17.9;85.50391;1002.011;;;;
2019/06/10 05:07:53;;;;;;;13.8;9.7;;;;;;;17.93;85.11328;1001.929;;;;
2019/06/10 05:10:18;;;;;;;14.7;9.7;;;;;;;17.87;85.12598;1001.908;;;;
2019/06/10 05:12:43;;;;;;;13.2;9;;;;;;;17.58;86.14063;1002.057;;;;
2019/06/10 05:15:09;;;;;;;14.1;9.1;;;;;;;17.58;86.16309;1002.195;;;;
2019/06/10 05:17:34;;;;;;;15.3;10.3;;;;;;;17.57;86.52051;1002.213;;;;
2019/06/10 05:19:59;;;;;;;14.1;10.1;;;;;;;17.45;87.19727;1002.191;;;;
2019/06/10 05:22:24;;;;;;;15.4;10.5;;;;;;;17.52;87.30469;1002.01;;;;
2019/06/10 05:24:49;;;;;;;14;10.2;;;;;;;17.52;87.11816;1001.985;;;;
2019/06/10 05:27:15;;;;;;;14.7;10.1;;;;;;;17.52;87.26758;1001.958;;;;
2019/06/10 05:29:40;;;;;;;13.7;10.2;;;;;;;17.47;87.17578;1002.105;;;;
2019/06/10 05:32:05;;;;;;;12.9;10.4;;;;;;;17.63;87.03516;1002.139;;;;
2019/06/10 05:34:31;;;;;;;14.3;10.9;;;;;;;17.53;87.65527;1002.153;;;;
2019/06/10 05:36:56;;;;;;;15.4;10.7;;;;;;;17.66;87.58789;1002.15;;;;
2019/06/10 05:39:21;;;;;;;13.9;10.4;;;;;;;17.7;87.0957;1002.131;;;;
2019/06/10 05:41:46;;;;;;;15.2;10.2;;;;;;;18.04;85.99707;1002.088;;;;
2019/06/10 05:44:11;;;;;;;12.6;9.2;;;;;;;18.56;83.51074;1002.073;;;;
2019/06/10 05:46:36;;;;;;;13.4;9.8;;;;;;;18.71;83.72656;1002.117;;;;
2019/06/10 05:49:02;;;;;;;12.7;9.5;;;;;;;18.7;82.06836;1002.096;;;;
2019/06/10 05:51:27;;;;;;;14;9.5;;;;;;;18.77;83.46875;1002.126;;;;
2019/06/10 05:53:52;;;;;;;11.8;9.3;;;;;;;19.08;80.64258;1002.095;;;;
2019/06/10 05:56:17;;;;;;;12.5;9.3;;;;;;;18.76;81.62402;1001.978;;;;
2019/06/10 05:58:44;;;;;;;13.3;10.3;;;;;;;19.03;81.17188;1001.939;;;;
2019/06/10 06:01:09;;;;;;;11.2;9.1;;;;;;;18.98;81.31543;1001.902;;;;
2019/06/10 06:03:34;;;;;;;12.8;9.7;;;;;;;19.09;81.07813;1001.889;;;;
2019/06/10 06:05:59;;;;;;;12.9;9.9;;;;;;;18.86;82.32031;1001.981;;;;
2019/06/10 06:08:24;;;;;;;14.7;10.4;;;;;;;18.84;82.66504;1002.07;;;;
2019/06/10 06:10:50;;;;;;;14.4;10.2;;;;;;;19.1;81.46484;1002.052;;;;
2019/06/10 06:13:15;;;;;;;13.8;9.8;;;;;;;19.09;81.18359;1002.114;;;;
2019/06/10 06:15:40;;;;;;;14.8;10.3;;;;;;;19.29;80.46094;1002.166;;;;
2019/06/10 06:18:06;;;;;;;14.3;10.8;;;;;;;19.01;81.07324;1002.183;;;;
2019/06/10 06:20:31;;;;;;;13.2;10.2;;;;;;;18.84;81.52148;1002.28;;;;
2019/06/10 06:22:56;;;;;;;14.5;10.8;;;;;;;18.56;83.53418;1002.309;;;;
2019/06/10 06:25:21;;;;;;;17.1;12.2;;;;;;;18.43;84.5459;1002.378;;;;
2019/06/10 06:27:47;;;;;;;18.8;11.6;;;;;;;18.39;83.81445;1002.449;;;;
2019/06/10 06:30:12;;;;;;;16;11.9;;;;;;;18.47;83.40039;1002.468;;;;
2019/06/10 06:32:37;;;;;;;15.5;11.1;;;;;;;18.46;82.74414;1002.471;;;;
2019/06/10 06:35:04;;;;;;;15.9;11.3;;;;;;;18.26;84.25684;1002.415;;;;
2019/06/10 06:37:29;;;;;;;14.7;11.3;;;;;;;18.3;83.77637;1002.359;;;;
2019/06/10 06:39:55;;;;;;;14.1;10.6;;;;;;;18.29;83.60938;1002.427;;;;
2019/06/10 06:42:20;;;;;;;14.5;11;;;;;;;18.43;82.71582;1002.409;;;;
2019/06/10 06:44:45;;;;;;;13.7;11;;;;;;;18.37;83.52148;1002.353;;;;
2019/06/10 06:47:10;;;;;;;13.4;10.6;;;;;;;18.41;82.23633;1002.28;;;;
2019/06/10 06:49:35;;;;;;;17.8;11.1;;;;;;;18.28;83.29492;1002.256;;;;
2019/06/10 06:52:01;;;;;;;15;10.9;;;;;;;18.39;83.22363;1002.252;;;;
2019/06/10 06:54:26;;;;;;;15.3;10.7;;;;;;;18.46;82.64063;1002.262;;;;
2019/06/10 06:56:51;;;;;;;15.4;11.1;;;;;;;18.53;82.61816;1002.174;;;;
2019/06/10 06:59:16;;;;;;;16.2;11.3;;;;;;;18.39;84.33105;1002.18;;;;
2019/06/10 07:01:41;;;;;;;15.2;10.8;;;;;;;18.29;83.99609;1002.167;;;;
2019/06/10 07:04:06;;;;;;;15.2;11.3;;;;;;;18.24;85.14063;1002.092;;;;
2019/06/10 07:06:31;;;;;;;15.1;11.6;;;;;;;18.19;85.76074;1002.009;;;;
2019/06/10 07:08:57;;;;;;;17.2;12.2;;;;;;;18.4;85.26367;1001.875;;;;
2019/06/10 07:11:21;;;;;;;15.2;11.5;;;;;;;18.3;86.05957;1001.845;;;;
2019/06/10 07:13:46;;;;;;;14;11.7;;;;;;;18.46;85.75391;1001.763;;;;
2019/06/10 07:16:11;;;;;;;15.5;11.2;;;;;;;18.43;85.28027;1001.732;;;;
2019/06/10 07:18:37;;;;;;;13.8;10.9;;;;;;;18.59;84.99707;1001.712;;;;
2019/06/10 07:21:02;;;;;;;14;10.9;;;;;;;18.58;85.42676;1001.753;;;;
2019/06/10 07:23:27;;;;;;;14.3;10.3;;;;;;;18.43;85.12891;1001.822;;;;
2019/06/10 07:25:52;;;;;;;13.8;9.2;;;;;;;18.76;82.4873;1001.853;;;;
2019/06/10 07:28:17;;;;;;;11.1;9.1;;;;;;;18.71;83.41113;1001.84;;;;
2019/06/10 07:30:42;;;;;;;12;8.9;;;;;;;18.59;84.00586;1001.81;;;;
2019/06/10 07:33:08;;;;;;;12;9;;;;;;;18.56;83.7207;1001.783;;;;
2019/06/10 07:35:32;;;;;;;13.8;9.4;;;;;;;18.37;84.91992;1001.73;;;;
2019/06/10 07:37:57;;;;;;;11.5;9.3;;;;;;;18.4;85.22852;1001.705;;;;
2019/06/10 07:40:23;;;;;;;12;9;;;;;;;18.35;84.90527;1001.651;;;;
2019/06/10 07:42:48;;;;;;;9.6;7.6;;;;;;;18.61;83.04102;1001.695;;;;
2019/06/10 07:45:13;;;;;;;10.8;7.5;;;;;;;18.25;84.53516;1001.884;;;;
2019/06/10 07:47:38;;;;;;;11.7;7.7;;;;;;;18.23;84.26367;1001.882;;;;
2019/06/10 07:50:03;;;;;;;11.4;7.5;;;;;;;18.19;84.9209;1001.84;;;;
2019/06/10 07:52:29;;;;;;;10.1;7.4;;;;;;;18.19;85.33984;1001.777;;;;
2019/06/10 07:54:54;;;;;;;11;7.2;;;;;;;18.68;82.08887;1001.744;;;;
2019/06/10 07:57:19;;;;;;;11.9;7.6;;;;;;;18.43;83.19336;1001.791;;;;
2019/06/10 07:59:44;;;;;;;12;8;;;;;;;18.21;85.19043;1001.865;;;;
2019/06/10 08:02:10;;;;;;;11;7.2;;;;;;;18.31;84.09277;1001.884;;;;
2019/06/10 08:04:35;;;;;;;9.8;7.2;;;;;;;18.52;83.18945;1001.81;;;;
2019/06/10 08:07:00;;;;;;;11.5;7.6;;;;;;;18.38;83.70996;1001.854;;;;
2019/06/10 08:09:25;;;;;;;10.2;8;;;;;;;18.44;83.78027;1001.84;;;;
2019/06/10 08:11:50;;;;;;;11.8;8.9;;;;;;;18.31;85.19922;1001.76;;;;
2019/06/10 08:14:15;;;;;;;10.3;8.4;;;;;;;18.55;84.25684;1001.691;;;;
2019/06/10 08:16:40;;;;;;;11.3;7.5;;;;;;;18.66;82.03711;1001.701;;;;
2019/06/10 08:19:05;;;;;;;11.1;7.2;;;;;;;18.68;82.16992;1001.743;;;;
2019/06/10 08:21:30;;;;;;;10.2;7.5;;;;;;;18.86;81.81836;1001.647;;;;
2019/06/10 08:23:56;;;;;;;8.8;6.9;;;;;;;19.27;80.99414;1001.557;;;;
2019/06/10 08:26:21;;;;;;;9.2;6.5;;;;;;;20.01;79.08105;1001.605;;;;
2019/06/10 08:28:46;;;;;;;9.3;5.9;;;;;;;20.23;74.5918;1001.592;;;;
2019/06/10 08:31:11;;;;;;;11.5;5.5;;;;;;;20.47;74.32813;1001.576;;;;
2019/06/10 08:33:36;;;;;;;7.3;5;;;;;;;21.14;73.5625;1001.569;;;;
2019/06/10 08:36:01;;;;;;;9.3;5.8;;;;;;;22.11;68.85645;1001.596;;;;
2019/06/10 08:38:26;;;;;;;8.9;5.4;;;;;;;22.74;66.19922;1001.576;;;;
2019/06/10 08:40:51;;;;;;;8.4;5.2;;;;;;;22.48;67.30176;1001.76;;;;
2019/06/10 08:43:17;;;;;;;7.6;5.5;;;;;;;22.89;67.36426;1001.774;;;;
2019/06/10 08:45:42;;;;;;;8;4.5;;;;;;;22.5;64.74121;1001.818;;;;
2019/06/10 08:48:07;;;;;;;6.1;4.3;;;;;;;22.08;66.2998;1001.804;;;;
2019/06/10 08:50:32;;;;;;;6.6;4;;;;;;;22.46;64.3584;1001.822;;;;
2019/06/10 08:52:57;;;;;;;6.9;4.6;;;;;;;21.58;67.69336;1001.787;;;;
2019/06/10 08:55:23;;;;;;;6.7;4.4;;;;;;;22.66;65.69336;1001.553;;;;
2019/06/10 08:57:48;;;;;;;5.4;3.3;;;;;;;24.1;60.21484;1001.475;;;;
2019/06/10 09:00:13;;;;;;;6.6;3.9;;;;;;;25.37;55.70898;1001.47;;;;
2019/06/10 09:02:41;;;;;;;5.6;3.5;;;;;;;24.64;57.07227;1001.335;;;;
2019/06/10 09:05:06;;;;;;;5.1;3.1;;;;;;;23.65;60.0127;1001.274;;;;
2019/06/10 09:07:31;;;;;;;4.5;3.3;;;;;;;23.66;60.61621;1001.174;;;;
2019/06/10 09:09:56;;;;;;;5.3;3.5;;;;;;;22.79;61.19238;1000.981;;;;
2019/06/10 09:12:21;;;;;;;4.8;3.2;;;;;;;22.59;62.74023;1000.795;;;;
2019/06/10 09:14:47;;;;;;;4.6;3.1;;;;;;;22.23;62.23145;1000.679;;;;
2019/06/10 09:17:12;;;;;;;4.8;3.2;;;;;;;22.43;63.54199;1000.559;;;;
2019/06/10 09:19:37;;;;;;;5.8;3.8;;;;;;;23.15;62.08984;1000.366;;;;
2019/06/10 09:22:02;;;;;;;5.7;3.5;;;;;;;22.87;61.04883;1000.114;;;;
2019/06/10 09:24:27;;;;;;;5.7;3.7;;;;;;;22.5;63.8457;999.9725;;;;
2019/06/10 09:26:52;;;;;;;4.8;3.5;;;;;;;23.31;64.31738;1000.062;;;;
2019/06/10 09:29:17;;;;;;;5.6;3.3;;;;;;;25.93;53.5498;1000.381;;;;
2019/06/10 09:31:42;;;;;;;4.6;3;;;;;;;26.75;52.37695;1000.551;;;;
2019/06/10 09:34:07;;;;;;;5.5;3;;;;;;;27.85;47.68359;1000.701;;;;
2019/06/10 09:36:32;;;;;;;4.6;2.6;;;;;;;28.34;45.26855;1000.839;;;;
2019/06/10 09:38:58;;;;;;;5.2;3;;;;;;;27.37;46.72949;1000.972;;;;
2019/06/10 09:41:23;;;;;;;4.8;3;;;;;;;27.46;47.41699;1001.008;;;;
2019/06/10 09:43:48;;;;;;;3.9;3;;;;;;;28.04;43.9873;1000.946;;;;
2019/06/10 09:46:13;;;;;;;4.5;3.1;;;;;;;27.07;46.74609;1000.965;;;;
2019/06/10 09:48:38;;;;;;;5.7;3.4;;;;;;;25.03;52.6377;1001.003;;;;
2019/06/10 09:51:03;;;;;;;5.1;3.3;;;;;;;25.1;54.24414;1001.063;;;;
2019/06/10 09:53:28;;;;;;;4.6;3;;;;;;;24.92;51.87988;1001.048;;;;
2019/06/10 09:55:53;;;;;;;4.4;3;;;;;;;24.32;53.59473;1001.064;;;;
2019/06/10 09:58:19;;;;;;;5.6;2.9;;;;;;;24.62;51.89258;1001.109;;;;
2019/06/10 10:00:44;;;;;;;5.3;3.2;;;;;;;25.12;51.18164;1001.133;;;;
2019/06/10 10:03:09;;;;;;;5.2;3.7;;;;;;;23.97;55.2041;1001.199;;;;
2019/06/10 10:05:34;;;;;;;6;3.5;;;;;;;24.22;55.84961;1001.191;;;;
2019/06/10 10:07:59;;;;;;;6.1;3.6;;;;;;;24.21;55.44824;1001.16;;;;
2019/06/10 10:10:24;;;;;;;5;3.3;;;;;;;25.34;51.33691;1001.159;;;;
2019/06/10 10:12:51;;;;;;;4.4;3.3;;;;;;;25.42;51.84375;1001.104;;;;
2019/06/10 10:15:16;;;;;;;5.5;3.7;;;;;;;25.13;54.0459;1001.024;;;;
2019/06/10 10:17:41;;;;;;;4.9;3.6;;;;;;;24.72;53.86719;1001.032;;;;
2019/06/10 10:20:06;;;;;;;5.8;3.6;;;;;;;24.06;56.23047;1000.955;;;;
2019/06/10 10:22:31;;;;;;;6.1;3.3;;;;;;;23.66;57.61914;1000.93;;;;
2019/06/10 10:24:56;;;;;;;6;4;;;;;;;22.93;58.99707;1000.886;;;;
2019/06/10 10:27:22;;;;;;;5.3;3.9;;;;;;;22.76;59.39941;1000.744;;;;
2019/06/10 10:29:48;;;;;;;5.2;3.3;;;;;;;23.36;57.79297;1000.271;;;;
2019/06/10 10:32:13;;;;;;;4.8;3.4;;;;;;;23.5;57.10449;999.8651;;;;
2019/06/10 10:34:39;;;;;;;5.8;3.6;;;;;;;23.63;58.80566;999.4361;;;;
2019/06/10 10:37:05;;;;;;;4.7;3.6;;;;;;;23.82;55.83496;999.0186;;;;
2019/06/10 10:39:30;;;;;;;5.1;3.6;;;;;;;22.56;59.63086;998.5499;;;;
2019/06/10 10:41:55;;;;;;;5.2;3.7;;;;;;;21.98;61.85547;998.8191;;;;
2019/06/10 10:44:20;;;;;;;4.8;3.5;;;;;;;22.26;61.30762;999.09;;;;
2019/06/10 10:46:45;;;;;;;5.5;3.7;;;;;;;22.09;60.32129;998.8855;;;;
2019/06/10 10:49:10;;;;;;;5.2;3.9;;;;;;;21.42;62.92871;998.9507;;;;
2019/06/10 10:51:35;;;;;;;5.2;3.8;;;;;;;21.51;63.43359;999.3274;;;;
2019/06/10 10:54:00;;;;;;;5.5;3.8;;;;;;;21.96;62.26367;999.6423;;;;
2019/06/10 10:56:25;;;;;;;5.2;3.8;;;;;;;22.07;60.59961;999.7723;;;;
2019/06/10 10:58:51;;;;;;;5.9;4.2;;;;;;;22.48;59.51465;999.8582;;;;
2019/06/10 11:01:16;;;;;;;7.1;4;;;;;;;22.84;60.36426;1000.059;;;;
2019/06/10 11:03:41;;;;;;;6.4;4;;;;;;;22.71;60.80469;1000.147;;;;
2019/06/10 11:06:06;;;;;;;5.7;4.1;;;;;;;22.94;60.96582;1000.164;;;;
2019/06/10 11:08:31;;;;;;;5.9;3.9;;;;;;;22.81;61.59473;1000.062;;;;
2019/06/10 11:10:56;;;;;;;5.5;3.8;;;;;;;23.05;59.68359;1000.256;;;;
2019/06/10 11:13:21;;;;;;;3.8;3.4;;;;;;;22.57;60.87891;1000.49;;;;
2019/06/10 11:15:47;;;;;;;6.1;3.8;;;;;;;22.37;60.66406;1000.699;;;;
2019/06/10 11:18:12;;;;;;;5.5;3.6;;;;;;;22.42;60.09473;1000.735;;;;
2019/06/10 11:20:37;;;;;;;5.2;3.5;;;;;;;22.54;59.80371;1000.678;;;;
2019/06/10 11:23:02;;;;;;;4.8;3.7;;;;;;;22.42;58.91699;1000.709;;;;
2019/06/10 11:25:27;;;;;;;4.8;3.8;;;;;;;22.39;58.71387;1000.63;;;;
2019/06/10 11:27:52;;;;;;;5.9;3.7;;;;;;;22.37;58.38184;1000.505;;;;
2019/06/10 11:30:17;;;;;;;4.7;3.7;;;;;;;22.92;58.66602;1000.359;;;;
2019/06/10 11:32:43;;;;;;;5.4;3.7;;;;;;;23.6;55.50098;1000.253;;;;
2019/06/10 11:35:08;;;;;;;5.4;3.9;;;;;;;23.86;54.83691;1000.068;;;;
2019/06/10 11:37:33;;;;;;;5.3;3.6;;;;;;;24.57;52.98633;999.8522;;;;
2019/06/10 11:39:58;;;;;;;5.4;3.7;;;;;;;25.14;51.50391;999.8455;;;;
2019/06/10 11:42:24;;;;;;;6.7;4;;;;;;;24.23;52.95703;999.8242;;;;
2019/06/10 11:44:49;;;;;;;4.8;3.5;;;;;;;24.63;53.26465;999.7829;;;;
2019/06/10 11:47:16;;;;;;;5.7;3.7;;;;;;;24.6;53.74609;999.7786;;;;
2019/06/10 11:49:41;;;;;;;6.5;3.7;;;;;;;24.36;51.29492;999.6498;;;;
2019/06/10 11:52:08;;;;;;;6;3.7;;;;;;;24.74;50.88965;999.5044;;;;
2019/06/10 11:54:33;;;;;;;5.6;4;;;;;;;24.63;51.45605;999.5592;;;;
2019/06/10 11:56:58;;;;;;;5.1;3.6;;;;;;;23.86;53.20801;999.4878;;;;
2019/06/10 11:59:23;;;;;;;5.7;3.8;;;;;;;24.38;51.77148;999.5811;;;;
2019/06/10 12:01:50;;;;;;;6;3.5;;;;;;;24.46;50.43262;999.622;;;;
2019/06/10 12:04:15;;;;;;;5;3.5;;;;;;;23.72;52.46094;999.4626;;;;
2019/06/10 12:06:40;;;;;;;5.4;3.7;;;;;;;24.03;49.07324;999.3765;;;;
2019/06/10 12:09:06;;;;;;;4.4;3.3;;;;;;;23.91;50.26367;999.2847;;;;
2019/06/10 12:11:30;;;;;;;5.6;3.7;;;;;;;24.08;50.02246;999.2045;;;;
2019/06/10 12:13:55;;;;;;;5.2;3.8;;;;;;;23.92;50.19434;999.1619;;;;
2019/06/10 12:16:20;;;;;;;4.6;3;;;;;;;23.72;50.77344;999.1931;;;;
2019/06/10 12:18:46;;;;;;;4.9;3.5;;;;;;;23.72;51.7041;999.1967;;;;
2019/06/10 12:21:11;;;;;;;5.7;3.9;;;;;;;23.78;52.36133;999.2763;;;;
2019/06/10 12:23:37;;;;;;;5.4;3.8;;;;;;;23.07;53.39746;999.2053;;;;
2019/06/10 12:26:02;;;;;;;5.5;3.6;;;;;;;22.91;55.48438;999.0758;;;;
2019/06/10 12:28:27;;;;;;;5.4;4;;;;;;;23.27;54.25781;999.051;;;;
2019/06/10 12:30:52;;;;;;;4.1;3.5;;;;;;;23.1;55.83887;999.3346;;;;
2019/06/10 12:33:18;;;;;;;7;4;;;;;;;22.67;56.91504;999.5361;;;;
2019/06/10 12:35:43;;;;;;;6.1;3.8;;;;;;;22.5;57.19824;999.6167;;;;
2019/06/10 12:38:09;;;;;;;5.9;4.1;;;;;;;22.39;57.21973;999.7696;;;;
2019/06/10 12:40:35;;;;;;;4.7;3.6;;;;;;;22.21;55.36133;999.9355;;;;
2019/06/10 12:43:01;;;;;;;5.2;3.6;;;;;;;22;56.23047;1000.048;;;;
2019/06/10 12:45:26;;;;;;;7;3.9;;;;;;;22.02;56.31445;1000.135;;;;
2019/06/10 12:47:51;;;;;;;5.8;3.7;;;;;;;21.78;57.98828;1000.22;;;;
2019/06/10 12:50:17;;;;;;;5;3.7;;;;;;;21.79;58.59863;1000.296;;;;
2019/06/10 12:52:42;;;;;;;4.1;3.5;;;;;;;21.96;59.46875;1000.324;;;;
2019/06/10 12:55:08;;;;;;;6.6;3.9;;;;;;;21.79;62.48828;1000.387;;;;
2019/06/10 12:57:33;;;;;;;4.9;3.7;;;;;;;21.6;61.9209;1000.43;;;;
2019/06/10 12:59:58;;;;;;;5.5;3.7;;;;;;;21.66;64.1123;1000.458;;;;
2019/06/10 13:02:23;;;;;;;5.6;3.9;;;;;;;21.58;64.60547;1000.406;;;;
2019/06/10 13:04:49;;;;;;;5.7;4.1;;;;;;;21.61;64.77441;1000.232;;;;
2019/06/10 13:07:14;;;;;;;5.8;4;;;;;;;21.82;62.84375;999.9309;;;;
2019/06/10 13:09:39;;;;;;;6.5;4;;;;;;;21.51;65.03125;999.81;;;;
2019/06/10 13:12:04;;;;;;;5.5;3.9;;;;;;;21.45;64.88086;999.6824;;;;
2019/06/10 13:14:29;;;;;;;4.3;3.4;;;;;;;21.43;65.125;999.626;;;;
2019/06/10 13:16:56;;;;;;;6.2;4.3;;;;;;;21.79;67.25684;999.5228;;;;
2019/06/10 13:19:21;;;;;;;5.8;4;;;;;;;21.94;66.85645;999.4788;;;;
2019/06/10 13:21:47;;;;;;;4.9;3.7;;;;;;;21.71;67.39746;999.4881;;;;
2019/06/10 13:24:12;;;;;;;5.3;4.4;;;;;;;21.39;69.17871;999.5118;;;;
2019/06/10 13:26:37;;;;;;;4.7;3.9;;;;;;;21.4;69.78027;999.5215;;;;
2019/06/10 13:29:02;;;;;;;5.4;4.6;;;;;;;21.44;71.51074;999.6438;;;;
2019/06/10 13:31:29;;;;;;;5.2;4.1;;;;;;;22.01;67.80664;999.7158;;;;
2019/06/10 13:33:54;;;;;;;5.8;4;;;;;;;21.99;66.92383;999.5969;;;;
2019/06/10 13:36:19;;;;;;;7.3;4.2;;;;;;;21.83;69.03613;999.5428;;;;
2019/06/10 13:38:44;;;;;;;5.2;3.6;;;;;;;21.98;66.54395;999.4609;;;;
2019/06/10 13:41:09;;;;;;;5.7;4.4;;;;;;;22.19;65.62207;999.3536;;;;
2019/06/10 13:43:34;;;;;;;5.6;4;;;;;;;22.71;64.95996;999.1755;;;;
2019/06/10 13:45:59;;;;;;;5.3;3.8;;;;;;;23.25;62.48145;999.1003;;;;
2019/06/10 13:48:25;;;;;;;5.6;3.8;;;;;;;23.2;64.11133;998.9166;;;;
2019/06/10 13:50:50;;;;;;;6.5;4.2;;;;;;;23.33;61.07813;998.8445;;;;
2019/06/10 13:53:15;;;;;;;5;3.9;;;;;;;22.81;62.97266;998.7817;;;;
2019/06/10 13:55:40;;;;;;;5.6;4.2;;;;;;;22.88;65.20703;998.7586;;;;
2019/06/10 13:58:05;;;;;;;5.7;4.4;;;;;;;22.52;61.83789;998.7896;;;;
2019/06/10 14:00:30;;;;;;;8.5;4.6;;;;;;;22.21;63.11035;998.8675;;;;
2019/06/10 14:02:55;;;;;;;6.1;4.1;;;;;;;21.8;64.25098;998.8499;;;;
2019/06/10 14:05:20;;;;;;;6.1;4.3;;;;;;;21.48;65.02734;998.7996;;;;
2019/06/10 14:07:46;;;;;;;5.6;4.3;;;;;;;21.28;65.43066;998.8535;;;;
2019/06/10 14:10:11;;;;;;;5.6;4;;;;;;;20.87;68.14746;998.8486;;;;
2019/06/10 14:12:36;;;;;;;7.1;4.1;;;;;;;20.95;67.64453;998.7949;;;;
2019/06/10 14:15:01;;;;;;;6.9;4.4;;;;;;;21.17;69.28516;998.7467;;;;
2019/06/10 14:17:26;;;;;;;6;4.3;;;;;;;21.17;67.51465;998.7817;;;;
2019/06/10 14:19:51;;;;;;;5.9;4.7;;;;;;;20.85;68.61328;998.8552;;;;
2019/06/10 14:22:16;;;;;;;6.6;5.5;;;;;;;21.17;68.42969;998.8621;;;;
2019/06/10 14:24:42;;;;;;;7.7;5.8;;;;;;;21.24;66.73926;999.0051;;;;
2019/06/10 14:27:06;;;;;;;6.6;4;;;;;;;21.42;64.43066;999.2078;;;;
2019/06/10 14:29:31;;;;;;;5.3;4;;;;;;;21.49;64.59277;999.3337;;;;
2019/06/10 14:31:56;;;;;;;5;4;;;;;;;21.14;67.38086;999.301;;;;
2019/06/10 14:34:22;;;;;;;5.4;3.9;;;;;;;20.91;69.10449;999.293;;;;
2019/06/10 14:36:47;;;;;;;6.6;4.7;;;;;;;20.9;70.89648;999.3348;;;;
2019/06/10 14:39:12;;;;;;;6.4;4.7;;;;;;;21.23;67.65137;999.3108;;;;
2019/06/10 14:41:37;;;;;;;5.9;4.4;;;;;;;21.4;66.92773;999.1791;;;;
2019/06/10 14:44:02;;;;;;;5.5;4.3;;;;;;;21.14;68.03711;999.157;;;;
2019/06/10 14:46:27;;;;;;;6.2;4.4;;;;;;;21.02;67.43262;999.024;;;;
2019/06/10 14:48:52;;;;;;;6.1;4.3;;;;;;;21.02;67.45605;998.9461;;;;
2019/06/10 14:51:17;;;;;;;7.2;4;;;;;;;21.43;64.70117;998.8881;;;;
2019/06/10 14:53:42;;;;;;;6.8;4.1;;;;;;;21.18;66.96484;998.8497;;;;
2019/06/10 14:56:07;;;;;;;7.3;4.3;;;;;;;21.44;66.60352;998.8273;;;;
2019/06/10 14:58:32;;;;;;;6.1;4.7;;;;;;;21.58;66.55469;998.9116;;;;
2019/06/10 15:00:58;;;;;;;5.9;4.6;;;;;;;21.6;66.78223;999.0011;;;;
2019/06/10 15:03:23;;;;;;;5.9;4.8;;;;;;;20.79;69.75391;999.0471;;;;
2019/06/10 15:05:48;;;;;;;7.3;5.2;;;;;;;20.71;70.57324;999.0787;;;;
2019/06/10 15:08:13;;;;;;;6.3;5.5;;;;;;;20.69;70.56836;999.0229;;;;
2019/06/10 15:10:38;;;;;;;8.1;5.9;;;;;;;20.95;68.44141;998.8712;;;;
2019/06/10 15:13:04;;;;;;;7.4;5.6;;;;;;;21.14;67.56738;998.841;;;;
2019/06/10 15:15:29;;;;;;;7.4;5.5;;;;;;;20.91;69.26953;998.835;;;;
2019/06/10 15:17:54;;;;;;;7.9;5.5;;;;;;;21.02;69.32031;998.7976;;;;
2019/06/10 15:20:19;;;;;;;7.2;4.9;;;;;;;21.18;69.55664;998.7476;;;;